sensor_id;sensor_type;location;lat;lon;timestamp;P1;durP1;ratioP1;P2;durP2;ratioP2
35891;SDS011;21993;42.672;23.296;2022-09-02T00:01:46;17.27;;;13.10;;
35891;SDS011;21993;42.672;23.296;2022-09-02T00:04:14;17.07;;;12.90;;
35891;SDS011;21993;42.672;23.296;2022-09-02T00:06:46;14.57;;;12.17;;
35891;SDS011;21993;42.672;23.296;2022-09-02T00:09:14;18.63;;;12.30;;
35891;SDS011;21993;42.672;23.296;2022-09-02T00:11:42;17.23;;;13.27;;
35891;SDS011;21993;42.672;23.296;2022-09-02T00:14:11;14.63;;;12.87;;
35891;SDS011;21993;42.672;23.296;2022-09-02T00:16:40;18.87;;;12.40;;
35891;SDS011;21993;42.672;23.296;2022-09-02T00:19:05;20.13;;;13.13;;
35891;SDS011;21993;42.672;23.296;2022-09-02T00:21:31;20.47;;;12.83;;
35891;SDS011;21993;42.672;23.296;2022-09-02T00:23:59;16.30;;;12.43;;
35891;SDS011;21993;42.672;23.296;2022-09-02T00:26:25;13.87;;;12.17;;
35891;SDS011;21993;42.672;23.296;2022-09-02T00:28:51;21.83;;;14.33;;
35891;SDS011;21993;42.672;23.296;2022-09-02T00:31:17;15.13;;;13.33;;
35891;SDS011;21993;42.672;23.296;2022-09-02T00:33:43;19.07;;;13.57;;
35891;SDS011;21993;42.672;23.296;2022-09-02T00:36:10;15.17;;;13.57;;
35891;SDS011;21993;42.672;23.296;2022-09-02T00:38:36;17.17;;;12.73;;
35891;SDS011;21993;42.672;23.296;2022-09-02T00:41:05;15.43;;;12.57;;
35891;SDS011;21993;42.672;23.296;2022-09-02T00:43:44;16.47;;;12.83;;
35891;SDS011;21993;42.672;23.296;2022-09-02T00:46:16;18.60;;;12.33;;
35891;SDS011;21993;42.672;23.296;2022-09-02T00:48:51;16.17;;;13.07;;
35891;SDS011;21993;42.672;23.296;2022-09-02T00:51:21;17.37;;;13.37;;
35891;SDS011;21993;42.672;23.296;2022-09-02T00:53:47;17.40;;;12.43;;
35891;SDS011;21993;42.672;23.296;2022-09-02T00:56:24;15.23;;;12.83;;
35891;SDS011;21993;42.672;23.296;2022-09-02T00:58:53;17.80;;;13.50;;
35891;SDS011;21993;42.672;23.296;2022-09-02T01:01:20;15.73;;;13.53;;
35891;SDS011;21993;42.672;23.296;2022-09-02T01:03:46;14.77;;;12.90;;
35891;SDS011;21993;42.672;23.296;2022-09-02T01:06:12;17.93;;;13.50;;
35891;SDS011;21993;42.672;23.296;2022-09-02T01:08:39;16.03;;;12.53;;
35891;SDS011;21993;42.672;23.296;2022-09-02T01:11:10;19.07;;;12.40;;
35891;SDS011;21993;42.672;23.296;2022-09-02T01:13:37;16.60;;;13.77;;
35891;SDS011;21993;42.672;23.296;2022-09-02T01:18:56;17.27;;;13.13;;
35891;SDS011;21993;42.672;23.296;2022-09-02T01:21:24;15.30;;;12.90;;
35891;SDS011;21993;42.672;23.296;2022-09-02T01:23:50;15.80;;;12.93;;
35891;SDS011;21993;42.672;23.296;2022-09-02T01:26:17;15.00;;;12.93;;
35891;SDS011;21993;42.672;23.296;2022-09-02T01:28:43;16.60;;;13.07;;
35891;SDS011;21993;42.672;23.296;2022-09-02T01:31:09;14.93;;;11.60;;
35891;SDS011;21993;42.672;23.296;2022-09-02T01:33:35;11.13;;;9.70;;
35891;SDS011;21993;42.672;23.296;2022-09-02T01:36:01;10.33;;;9.17;;
35891;SDS011;21993;42.672;23.296;2022-09-02T01:38:29;9.63;;;8.57;;
35891;SDS011;21993;42.672;23.296;2022-09-02T01:40:54;7.23;;;6.50;;
35891;SDS011;21993;42.672;23.296;2022-09-02T01:43:21;9.80;;;6.70;;
35891;SDS011;21993;42.672;23.296;2022-09-02T01:45:50;8.03;;;5.80;;
35891;SDS011;21993;42.672;23.296;2022-09-02T01:48:17;7.90;;;6.67;;
35891;SDS011;21993;42.672;23.296;2022-09-02T01:50:45;5.90;;;5.13;;
35891;SDS011;21993;42.672;23.296;2022-09-02T01:53:13;8.83;;;5.63;;
35891;SDS011;21993;42.672;23.296;2022-09-02T01:55:39;6.33;;;5.43;;
35891;SDS011;21993;42.672;23.296;2022-09-02T01:58:04;5.40;;;4.90;;
35891;SDS011;21993;42.672;23.296;2022-09-02T02:00:30;7.73;;;4.80;;
35891;SDS011;21993;42.672;23.296;2022-09-02T02:02:55;7.40;;;3.87;;
35891;SDS011;21993;42.672;23.296;2022-09-02T02:05:22;4.80;;;3.57;;
35891;SDS011;21993;42.672;23.296;2022-09-02T02:07:47;4.67;;;3.80;;
35891;SDS011;21993;42.672;23.296;2022-09-02T02:10:14;5.10;;;3.30;;
35891;SDS011;21993;42.672;23.296;2022-09-02T02:12:41;4.20;;;3.80;;
35891;SDS011;21993;42.672;23.296;2022-09-02T02:15:09;4.57;;;4.07;;
35891;SDS011;21993;42.672;23.296;2022-09-02T02:17:36;4.30;;;3.90;;
35891;SDS011;21993;42.672;23.296;2022-09-02T02:20:03;5.17;;;4.00;;
35891;SDS011;21993;42.672;23.296;2022-09-02T02:22:30;4.97;;;3.57;;
35891;SDS011;21993;42.672;23.296;2022-09-02T02:24:55;4.20;;;3.80;;
35891;SDS011;21993;42.672;23.296;2022-09-02T02:27:21;4.20;;;3.80;;
35891;SDS011;21993;42.672;23.296;2022-09-02T02:29:46;4.43;;;4.03;;
35891;SDS011;21993;42.672;23.296;2022-09-02T02:32:12;4.63;;;3.87;;
35891;SDS011;21993;42.672;23.296;2022-09-02T02:34:38;6.20;;;3.97;;
35891;SDS011;21993;42.672;23.296;2022-09-02T02:37:04;5.07;;;4.57;;
35891;SDS011;21993;42.672;23.296;2022-09-02T02:39:30;4.97;;;4.47;;
35891;SDS011;21993;42.672;23.296;2022-09-02T02:41:56;4.90;;;4.40;;
35891;SDS011;21993;42.672;23.296;2022-09-02T02:44:21;5.33;;;4.80;;
35891;SDS011;21993;42.672;23.296;2022-09-02T02:46:47;9.37;;;5.27;;
35891;SDS011;21993;42.672;23.296;2022-09-02T02:49:13;6.63;;;5.20;;
35891;SDS011;21993;42.672;23.296;2022-09-02T02:51:38;6.93;;;5.73;;
35891;SDS011;21993;42.672;23.296;2022-09-02T02:54:04;5.73;;;5.13;;
35891;SDS011;21993;42.672;23.296;2022-09-02T02:56:30;6.83;;;4.77;;
35891;SDS011;21993;42.672;23.296;2022-09-02T02:58:56;5.20;;;4.70;;
35891;SDS011;21993;42.672;23.296;2022-09-02T03:01:25;9.07;;;5.20;;
35891;SDS011;21993;42.672;23.296;2022-09-02T03:03:50;4.90;;;4.27;;
35891;SDS011;21993;42.672;23.296;2022-09-02T03:06:18;5.57;;;4.57;;
35891;SDS011;21993;42.672;23.296;2022-09-02T03:08:43;5.67;;;4.70;;
35891;SDS011;21993;42.672;23.296;2022-09-02T03:11:09;7.23;;;4.63;;
35891;SDS011;21993;42.672;23.296;2022-09-02T03:13:35;8.10;;;5.10;;
35891;SDS011;21993;42.672;23.296;2022-09-02T03:16:00;6.63;;;5.57;;
35891;SDS011;21993;42.672;23.296;2022-09-02T03:18:29;5.97;;;5.43;;
35891;SDS011;21993;42.672;23.296;2022-09-02T03:20:54;6.97;;;5.80;;
35891;SDS011;21993;42.672;23.296;2022-09-02T03:23:19;6.17;;;5.47;;
35891;SDS011;21993;42.672;23.296;2022-09-02T03:25:45;7.40;;;5.67;;
35891;SDS011;21993;42.672;23.296;2022-09-02T03:28:11;6.73;;;5.20;;
35891;SDS011;21993;42.672;23.296;2022-09-02T03:30:37;7.37;;;6.43;;
35891;SDS011;21993;42.672;23.296;2022-09-02T03:33:03;7.93;;;6.60;;
35891;SDS011;21993;42.672;23.296;2022-09-02T03:35:32;9.23;;;6.73;;
35891;SDS011;21993;42.672;23.296;2022-09-02T03:38:02;9.37;;;6.60;;
35891;SDS011;21993;42.672;23.296;2022-09-02T03:40:28;9.20;;;7.17;;
35891;SDS011;21993;42.672;23.296;2022-09-02T03:42:53;8.97;;;7.53;;
35891;SDS011;21993;42.672;23.296;2022-09-02T03:45:21;8.70;;;7.27;;
35891;SDS011;21993;42.672;23.296;2022-09-02T03:47:47;8.67;;;7.17;;
35891;SDS011;21993;42.672;23.296;2022-09-02T03:50:37;9.13;;;7.60;;
35891;SDS011;21993;42.672;23.296;2022-09-02T03:53:05;11.07;;;7.97;;
35891;SDS011;21993;42.672;23.296;2022-09-02T03:55:31;9.97;;;7.37;;
35891;SDS011;21993;42.672;23.296;2022-09-02T03:57:57;11.20;;;8.17;;
35891;SDS011;21993;42.672;23.296;2022-09-02T04:00:23;10.87;;;8.60;;
35891;SDS011;21993;42.672;23.296;2022-09-02T04:02:53;13.97;;;7.90;;
35891;SDS011;21993;42.672;23.296;2022-09-02T04:05:19;10.90;;;8.47;;
35891;SDS011;21993;42.672;23.296;2022-09-02T04:07:46;9.20;;;7.87;;
35891;SDS011;21993;42.672;23.296;2022-09-02T04:10:12;10.73;;;8.20;;
35891;SDS011;21993;42.672;23.296;2022-09-02T04:12:39;13.77;;;8.73;;
35891;SDS011;21993;42.672;23.296;2022-09-02T04:15:05;9.43;;;7.90;;
35891;SDS011;21993;42.672;23.296;2022-09-02T04:17:36;10.47;;;8.33;;
35891;SDS011;21993;42.672;23.296;2022-09-02T04:20:04;11.63;;;8.27;;
35891;SDS011;21993;42.672;23.296;2022-09-02T04:22:31;9.43;;;8.20;;
35891;SDS011;21993;42.672;23.296;2022-09-02T04:24:57;11.97;;;8.37;;
35891;SDS011;21993;42.672;23.296;2022-09-02T04:27:22;10.87;;;9.20;;
35891;SDS011;21993;42.672;23.296;2022-09-02T04:29:48;10.37;;;8.10;;
35891;SDS011;21993;42.672;23.296;2022-09-02T04:32:13;13.23;;;9.70;;
35891;SDS011;21993;42.672;23.296;2022-09-02T04:34:39;10.07;;;8.40;;
35891;SDS011;21993;42.672;23.296;2022-09-02T04:37:04;10.80;;;9.03;;
35891;SDS011;21993;42.672;23.296;2022-09-02T04:39:30;11.40;;;8.07;;
35891;SDS011;21993;42.672;23.296;2022-09-02T04:41:55;12.33;;;8.83;;
35891;SDS011;21993;42.672;23.296;2022-09-02T04:44:21;11.47;;;9.60;;
35891;SDS011;21993;42.672;23.296;2022-09-02T04:46:46;12.33;;;8.33;;
35891;SDS011;21993;42.672;23.296;2022-09-02T04:49:12;11.40;;;9.17;;
35891;SDS011;21993;42.672;23.296;2022-09-02T04:51:38;11.37;;;8.90;;
35891;SDS011;21993;42.672;23.296;2022-09-02T04:54:04;12.90;;;9.70;;
35891;SDS011;21993;42.672;23.296;2022-09-02T04:56:30;12.80;;;9.50;;
35891;SDS011;21993;42.672;23.296;2022-09-02T04:58:56;13.83;;;10.03;;
35891;SDS011;21993;42.672;23.296;2022-09-02T05:01:23;13.47;;;9.23;;
35891;SDS011;21993;42.672;23.296;2022-09-02T05:03:51;16.43;;;10.43;;
35891;SDS011;21993;42.672;23.296;2022-09-02T05:06:18;14.63;;;9.33;;
35891;SDS011;21993;42.672;23.296;2022-09-02T05:08:46;13.83;;;9.83;;
35891;SDS011;21993;42.672;23.296;2022-09-02T05:11:25;14.70;;;10.90;;
35891;SDS011;21993;42.672;23.296;2022-09-02T05:13:56;14.83;;;11.67;;
35891;SDS011;21993;42.672;23.296;2022-09-02T05:16:28;16.07;;;10.33;;
35891;SDS011;21993;42.672;23.296;2022-09-02T05:18:57;13.20;;;10.10;;
35891;SDS011;21993;42.672;23.296;2022-09-02T05:21:23;12.37;;;10.03;;
35891;SDS011;21993;42.672;23.296;2022-09-02T05:23:49;16.17;;;10.87;;
35891;SDS011;21993;42.672;23.296;2022-09-02T05:26:15;14.70;;;10.07;;
35891;SDS011;21993;42.672;23.296;2022-09-02T05:28:41;13.37;;;9.80;;
35891;SDS011;21993;42.672;23.296;2022-09-02T05:31:15;15.57;;;9.27;;
35891;SDS011;21993;42.672;23.296;2022-09-02T05:33:43;11.97;;;9.20;;
35891;SDS011;21993;42.672;23.296;2022-09-02T05:36:13;11.53;;;9.17;;
35891;SDS011;21993;42.672;23.296;2022-09-02T05:38:41;10.77;;;8.00;;
35891;SDS011;21993;42.672;23.296;2022-09-02T05:41:08;11.10;;;8.07;;
35891;SDS011;21993;42.672;23.296;2022-09-02T05:43:37;13.43;;;8.67;;
35891;SDS011;21993;42.672;23.296;2022-09-02T05:46:04;11.70;;;8.93;;
35891;SDS011;21993;42.672;23.296;2022-09-02T05:48:32;11.13;;;7.53;;
35891;SDS011;21993;42.672;23.296;2022-09-02T05:51:16;10.27;;;8.07;;
35891;SDS011;21993;42.672;23.296;2022-09-02T05:53:42;15.20;;;8.60;;
35891;SDS011;21993;42.672;23.296;2022-09-02T05:56:07;10.80;;;7.17;;
35891;SDS011;21993;42.672;23.296;2022-09-02T05:58:33;8.93;;;7.57;;
35891;SDS011;21993;42.672;23.296;2022-09-02T06:00:58;9.60;;;8.10;;
35891;SDS011;21993;42.672;23.296;2022-09-02T06:03:23;10.10;;;7.57;;
35891;SDS011;21993;42.672;23.296;2022-09-02T06:05:53;8.27;;;7.47;;
35891;SDS011;21993;42.672;23.296;2022-09-02T06:08:19;10.10;;;7.80;;
35891;SDS011;21993;42.672;23.296;2022-09-02T06:10:45;10.73;;;7.77;;
35891;SDS011;21993;42.672;23.296;2022-09-02T06:13:10;9.93;;;7.37;;
35891;SDS011;21993;42.672;23.296;2022-09-02T06:15:39;10.47;;;8.00;;
35891;SDS011;21993;42.672;23.296;2022-09-02T06:18:09;10.30;;;8.07;;
35891;SDS011;21993;42.672;23.296;2022-09-02T06:20:39;10.70;;;8.70;;
35891;SDS011;21993;42.672;23.296;2022-09-02T06:23:05;9.53;;;8.33;;
35891;SDS011;21993;42.672;23.296;2022-09-02T06:25:30;8.10;;;6.97;;
35891;SDS011;21993;42.672;23.296;2022-09-02T06:27:56;10.47;;;7.37;;
35891;SDS011;21993;42.672;23.296;2022-09-02T06:30:21;9.27;;;7.67;;
35891;SDS011;21993;42.672;23.296;2022-09-02T06:32:47;9.27;;;6.70;;
35891;SDS011;21993;42.672;23.296;2022-09-02T06:35:13;7.60;;;6.87;;
35891;SDS011;21993;42.672;23.296;2022-09-02T06:37:39;9.80;;;8.07;;
35891;SDS011;21993;42.672;23.296;2022-09-02T06:40:05;11.20;;;7.93;;
35891;SDS011;21993;42.672;23.296;2022-09-02T06:42:31;13.17;;;8.23;;
35891;SDS011;21993;42.672;23.296;2022-09-02T06:44:56;10.90;;;9.20;;
35891;SDS011;21993;42.672;23.296;2022-09-02T06:47:22;10.50;;;8.23;;
35891;SDS011;21993;42.672;23.296;2022-09-02T06:49:48;10.13;;;8.27;;
35891;SDS011;21993;42.672;23.296;2022-09-02T06:52:13;11.23;;;7.70;;
35891;SDS011;21993;42.672;23.296;2022-09-02T06:54:39;12.57;;;9.43;;
35891;SDS011;21993;42.672;23.296;2022-09-02T06:57:04;10.23;;;8.40;;
35891;SDS011;21993;42.672;23.296;2022-09-02T06:59:29;9.33;;;7.70;;
35891;SDS011;21993;42.672;23.296;2022-09-02T07:01:55;10.67;;;8.20;;
35891;SDS011;21993;42.672;23.296;2022-09-02T07:04:21;11.30;;;9.33;;
35891;SDS011;21993;42.672;23.296;2022-09-02T07:07:06;10.40;;;9.30;;
35891;SDS011;21993;42.672;23.296;2022-09-02T07:09:32;10.77;;;8.33;;
35891;SDS011;21993;42.672;23.296;2022-09-02T07:11:59;15.03;;;10.87;;
35891;SDS011;21993;42.672;23.296;2022-09-02T07:14:26;9.57;;;8.30;;
35891;SDS011;21993;42.672;23.296;2022-09-02T07:16:52;12.37;;;9.27;;
35891;SDS011;21993;42.672;23.296;2022-09-02T07:19:20;9.73;;;8.40;;
35891;SDS011;21993;42.672;23.296;2022-09-02T07:21:46;9.97;;;7.83;;
35891;SDS011;21993;42.672;23.296;2022-09-02T07:24:15;16.70;;;10.73;;
35891;SDS011;21993;42.672;23.296;2022-09-02T07:26:41;11.63;;;9.33;;
35891;SDS011;21993;42.672;23.296;2022-09-02T07:29:08;10.83;;;8.67;;
35891;SDS011;21993;42.672;23.296;2022-09-02T07:31:36;13.73;;;9.60;;
35891;SDS011;21993;42.672;23.296;2022-09-02T07:34:04;11.47;;;8.40;;
35891;SDS011;21993;42.672;23.296;2022-09-02T07:36:31;9.53;;;8.43;;
35891;SDS011;21993;42.672;23.296;2022-09-02T07:38:59;10.13;;;6.90;;
35891;SDS011;21993;42.672;23.296;2022-09-02T07:41:25;10.07;;;8.00;;
35891;SDS011;21993;42.672;23.296;2022-09-02T07:43:51;9.67;;;8.03;;
35891;SDS011;21993;42.672;23.296;2022-09-02T07:46:16;9.67;;;7.20;;
35891;SDS011;21993;42.672;23.296;2022-09-02T07:48:42;8.87;;;7.27;;
35891;SDS011;21993;42.672;23.296;2022-09-02T07:51:08;10.10;;;8.53;;
35891;SDS011;21993;42.672;23.296;2022-09-02T07:53:34;12.03;;;7.47;;
35891;SDS011;21993;42.672;23.296;2022-09-02T07:56:00;8.90;;;7.33;;
35891;SDS011;21993;42.672;23.296;2022-09-02T07:58:27;10.47;;;7.87;;
35891;SDS011;21993;42.672;23.296;2022-09-02T08:00:53;8.53;;;7.63;;
35891;SDS011;21993;42.672;23.296;2022-09-02T08:03:23;8.83;;;7.23;;
35891;SDS011;21993;42.672;23.296;2022-09-02T08:05:50;11.27;;;7.00;;
35891;SDS011;21993;42.672;23.296;2022-09-02T08:08:16;9.27;;;7.07;;
35891;SDS011;21993;42.672;23.296;2022-09-02T08:10:49;10.47;;;7.60;;
35891;SDS011;21993;42.672;23.296;2022-09-02T08:13:16;11.93;;;8.77;;
35891;SDS011;21993;42.672;23.296;2022-09-02T08:15:42;10.27;;;8.60;;
35891;SDS011;21993;42.672;23.296;2022-09-02T08:18:08;8.83;;;7.73;;
35891;SDS011;21993;42.672;23.296;2022-09-02T08:20:33;7.77;;;6.97;;
35891;SDS011;21993;42.672;23.296;2022-09-02T08:22:59;10.50;;;7.87;;
35891;SDS011;21993;42.672;23.296;2022-09-02T08:25:26;9.83;;;7.63;;
35891;SDS011;21993;42.672;23.296;2022-09-02T08:27:52;9.60;;;6.77;;
35891;SDS011;21993;42.672;23.296;2022-09-02T08:30:18;9.87;;;7.07;;
35891;SDS011;21993;42.672;23.296;2022-09-02T08:32:44;8.37;;;7.10;;
35891;SDS011;21993;42.672;23.296;2022-09-02T08:35:10;8.50;;;7.13;;
35891;SDS011;21993;42.672;23.296;2022-09-02T08:37:35;11.07;;;7.23;;
35891;SDS011;21993;42.672;23.296;2022-09-02T08:40:03;9.27;;;8.27;;
35891;SDS011;21993;42.672;23.296;2022-09-02T08:45:17;9.30;;;7.53;;
35891;SDS011;21993;42.672;23.296;2022-09-02T08:47:50;8.03;;;7.10;;
35891;SDS011;21993;42.672;23.296;2022-09-02T08:50:39;7.93;;;6.87;;
35891;SDS011;21993;42.672;23.296;2022-09-02T08:53:15;8.40;;;7.50;;
35891;SDS011;21993;42.672;23.296;2022-09-02T08:55:50;11.03;;;7.40;;
35891;SDS011;21993;42.672;23.296;2022-09-02T08:58:20;8.53;;;6.63;;
35891;SDS011;21993;42.672;23.296;2022-09-02T09:00:57;12.80;;;7.43;;
35891;SDS011;21993;42.672;23.296;2022-09-02T09:03:33;10.03;;;7.93;;
35891;SDS011;21993;42.672;23.296;2022-09-02T09:06:19;10.20;;;7.20;;
35891;SDS011;21993;42.672;23.296;2022-09-02T09:08:56;8.80;;;7.30;;
35891;SDS011;21993;42.672;23.296;2022-09-02T09:11:36;11.37;;;8.10;;
35891;SDS011;21993;42.672;23.296;2022-09-02T09:19:21;10.83;;;8.53;;
35891;SDS011;21993;42.672;23.296;2022-09-02T09:21:52;13.27;;;9.07;;
35891;SDS011;21993;42.672;23.296;2022-09-02T09:24:24;10.63;;;8.23;;
35891;SDS011;21993;42.672;23.296;2022-09-02T09:26:54;15.27;;;10.03;;
35891;SDS011;21993;42.672;23.296;2022-09-02T09:29:20;10.43;;;9.30;;
35891;SDS011;21993;42.672;23.296;2022-09-02T09:31:53;12.83;;;8.77;;
35891;SDS011;21993;42.672;23.296;2022-09-02T09:34:21;10.27;;;9.17;;
35891;SDS011;21993;42.672;23.296;2022-09-02T09:36:51;13.13;;;9.00;;
35891;SDS011;21993;42.672;23.296;2022-09-02T09:39:27;22.50;;;15.97;;
35891;SDS011;21993;42.672;23.296;2022-09-02T09:42:11;15.13;;;11.70;;
35891;SDS011;21993;42.672;23.296;2022-09-02T09:44:40;12.23;;;9.97;;
35891;SDS011;21993;42.672;23.296;2022-09-02T09:49:47;19.13;;;14.07;;
35891;SDS011;21993;42.672;23.296;2022-09-02T09:52:27;19.43;;;14.47;;
35891;SDS011;21993;42.672;23.296;2022-09-02T09:55:09;13.70;;;10.60;;
35891;SDS011;21993;42.672;23.296;2022-09-02T09:57:38;11.63;;;10.30;;
35891;SDS011;21993;42.672;23.296;2022-09-02T10:00:38;11.87;;;10.17;;
35891;SDS011;21993;42.672;23.296;2022-09-02T10:02:58;13.70;;;10.10;;
35891;SDS011;21993;42.672;23.296;2022-09-02T10:07:58;19.07;;;16.20;;
35891;SDS011;21993;42.672;23.296;2022-09-02T10:10:27;11.37;;;10.17;;
35891;SDS011;21993;42.672;23.296;2022-09-02T10:12:55;15.93;;;12.77;;
35891;SDS011;21993;42.672;23.296;2022-09-02T10:16:14;15.77;;;10.73;;
35891;SDS011;21993;42.672;23.296;2022-09-02T10:18:14;12.00;;;10.50;;
35891;SDS011;21993;42.672;23.296;2022-09-02T10:29:06;16.60;;;12.97;;
35891;SDS011;21993;42.672;23.296;2022-09-02T10:37:23;15.93;;;12.00;;
35891;SDS011;21993;42.672;23.296;2022-09-02T10:39:59;15.13;;;10.87;;
35891;SDS011;21993;42.672;23.296;2022-09-02T10:51:00;13.70;;;11.00;;
35891;SDS011;21993;42.672;23.296;2022-09-02T10:53:39;16.17;;;12.73;;
35891;SDS011;21993;42.672;23.296;2022-09-02T11:01:35;12.30;;;10.93;;
35891;SDS011;21993;42.672;23.296;2022-09-02T11:04:31;13.87;;;11.27;;
35891;SDS011;21993;42.672;23.296;2022-09-02T11:07:18;17.77;;;12.23;;
35891;SDS011;21993;42.672;23.296;2022-09-02T11:10:02;18.13;;;11.63;;
35891;SDS011;21993;42.672;23.296;2022-09-02T11:12:38;14.43;;;11.17;;
35891;SDS011;21993;42.672;23.296;2022-09-02T11:15:32;16.60;;;12.07;;
35891;SDS011;21993;42.672;23.296;2022-09-02T11:20:50;15.20;;;12.00;;
35891;SDS011;21993;42.672;23.296;2022-09-02T11:26:14;15.73;;;13.10;;
35891;SDS011;21993;42.672;23.296;2022-09-02T11:28:53;15.27;;;12.10;;
35891;SDS011;21993;42.672;23.296;2022-09-02T11:31:37;16.80;;;11.60;;
35891;SDS011;21993;42.672;23.296;2022-09-02T11:34:18;15.20;;;11.67;;
35891;SDS011;21993;42.672;23.296;2022-09-02T11:37:05;12.73;;;11.37;;
35891;SDS011;21993;42.672;23.296;2022-09-02T11:39:43;15.70;;;12.07;;
35891;SDS011;21993;42.672;23.296;2022-09-02T11:51:00;16.43;;;12.67;;
35891;SDS011;21993;42.672;23.296;2022-09-02T11:53:41;18.53;;;15.37;;
35891;SDS011;21993;42.672;23.296;2022-09-02T11:58:42;16.33;;;13.97;;
35891;SDS011;21993;42.672;23.296;2022-09-02T12:03:57;18.23;;;14.60;;
35891;SDS011;21993;42.672;23.296;2022-09-02T12:06:23;17.80;;;14.93;;
35891;SDS011;21993;42.672;23.296;2022-09-02T12:14:10;16.43;;;13.43;;
35891;SDS011;21993;42.672;23.296;2022-09-02T12:17:00;17.37;;;12.70;;
35891;SDS011;21993;42.672;23.296;2022-09-02T12:19:44;17.53;;;12.40;;
35891;SDS011;21993;42.672;23.296;2022-09-02T12:27:21;18.87;;;14.27;;
35891;SDS011;21993;42.672;23.296;2022-09-02T12:29:47;14.83;;;13.10;;
35891;SDS011;21993;42.672;23.296;2022-09-02T12:32:31;16.00;;;12.03;;
35891;SDS011;21993;42.672;23.296;2022-09-02T12:35:11;16.93;;;12.87;;
35891;SDS011;21993;42.672;23.296;2022-09-02T12:38:39;20.17;;;15.07;;
35891;SDS011;21993;42.672;23.296;2022-09-02T12:40:33;15.03;;;13.00;;
35891;SDS011;21993;42.672;23.296;2022-09-02T12:43:53;16.17;;;12.33;;
35891;SDS011;21993;42.672;23.296;2022-09-02T12:49:39;16.97;;;14.57;;
35891;SDS011;21993;42.672;23.296;2022-09-02T12:52:11;15.70;;;13.80;;
35891;SDS011;21993;42.672;23.296;2022-09-02T12:54:56;14.27;;;12.60;;
35891;SDS011;21993;42.672;23.296;2022-09-02T12:57:48;17.73;;;13.57;;
35891;SDS011;21993;42.672;23.296;2022-09-02T13:00:26;17.23;;;14.50;;
35891;SDS011;21993;42.672;23.296;2022-09-02T13:08:29;15.43;;;13.00;;
35891;SDS011;21993;42.672;23.296;2022-09-02T13:31:24;19.50;;;15.00;;
35891;SDS011;21993;42.672;23.296;2022-09-02T13:36:28;16.57;;;13.70;;
35891;SDS011;21993;42.672;23.296;2022-09-02T13:41:50;19.50;;;16.47;;
35891;SDS011;21993;42.672;23.296;2022-09-02T13:44:19;18.23;;;16.30;;
35891;SDS011;21993;42.672;23.296;2022-09-02T13:46:51;26.37;;;18.63;;
35891;SDS011;21993;42.672;23.296;2022-09-02T13:49:24;23.50;;;16.47;;
35891;SDS011;21993;42.672;23.296;2022-09-02T13:51:54;24.60;;;18.43;;
35891;SDS011;21993;42.672;23.296;2022-09-02T13:54:31;31.60;;;22.37;;
35891;SDS011;21993;42.672;23.296;2022-09-02T13:56:59;27.13;;;18.33;;
35891;SDS011;21993;42.672;23.296;2022-09-02T13:59:35;29.00;;;18.97;;
35891;SDS011;21993;42.672;23.296;2022-09-02T14:02:22;29.37;;;19.53;;
35891;SDS011;21993;42.672;23.296;2022-09-02T14:04:55;25.10;;;19.07;;
35891;SDS011;21993;42.672;23.296;2022-09-02T14:07:27;26.27;;;19.27;;
35891;SDS011;21993;42.672;23.296;2022-09-02T14:09:55;29.30;;;21.07;;
35891;SDS011;21993;42.672;23.296;2022-09-02T14:12:23;37.20;;;23.47;;
35891;SDS011;21993;42.672;23.296;2022-09-02T14:14:51;28.70;;;20.33;;
35891;SDS011;21993;42.672;23.296;2022-09-02T14:17:21;31.73;;;21.63;;
35891;SDS011;21993;42.672;23.296;2022-09-02T14:19:48;33.87;;;23.73;;
35891;SDS011;21993;42.672;23.296;2022-09-02T14:22:32;34.60;;;23.00;;
35891;SDS011;21993;42.672;23.296;2022-09-02T14:24:58;31.93;;;21.93;;
35891;SDS011;21993;42.672;23.296;2022-09-02T14:27:23;34.30;;;22.93;;
35891;SDS011;21993;42.672;23.296;2022-09-02T14:29:54;33.07;;;22.60;;
35891;SDS011;21993;42.672;23.296;2022-09-02T14:32:25;31.07;;;20.93;;
35891;SDS011;21993;42.672;23.296;2022-09-02T14:35:09;32.03;;;22.20;;
35891;SDS011;21993;42.672;23.296;2022-09-02T14:37:51;29.13;;;21.53;;
35891;SDS011;21993;42.672;23.296;2022-09-02T14:40:38;29.90;;;21.73;;
35891;SDS011;21993;42.672;23.296;2022-09-02T14:43:13;26.33;;;20.47;;
35891;SDS011;21993;42.672;23.296;2022-09-02T14:45:42;36.50;;;25.73;;
35891;SDS011;21993;42.672;23.296;2022-09-02T14:48:21;32.10;;;24.60;;
35891;SDS011;21993;42.672;23.296;2022-09-02T14:50:49;26.83;;;20.20;;
35891;SDS011;21993;42.672;23.296;2022-09-02T14:53:26;31.10;;;20.73;;
35891;SDS011;21993;42.672;23.296;2022-09-02T14:55:53;30.30;;;21.77;;
35891;SDS011;21993;42.672;23.296;2022-09-02T14:58:20;33.90;;;23.87;;
35891;SDS011;21993;42.672;23.296;2022-09-02T15:00:49;30.27;;;22.00;;
35891;SDS011;21993;42.672;23.296;2022-09-02T15:03:19;28.00;;;20.43;;
35891;SDS011;21993;42.672;23.296;2022-09-02T15:05:46;26.30;;;20.17;;
35891;SDS011;21993;42.672;23.296;2022-09-02T15:08:12;23.93;;;18.77;;
35891;SDS011;21993;42.672;23.296;2022-09-02T15:10:39;23.00;;;18.07;;
35891;SDS011;21993;42.672;23.296;2022-09-02T15:13:07;25.27;;;18.20;;
35891;SDS011;21993;42.672;23.296;2022-09-02T15:15:36;23.70;;;17.50;;
35891;SDS011;21993;42.672;23.296;2022-09-02T15:18:02;26.03;;;18.90;;
35891;SDS011;21993;42.672;23.296;2022-09-02T15:20:29;26.63;;;19.73;;
35891;SDS011;21993;42.672;23.296;2022-09-02T15:22:55;24.23;;;16.70;;
35891;SDS011;21993;42.672;23.296;2022-09-02T15:25:20;22.83;;;17.00;;
35891;SDS011;21993;42.672;23.296;2022-09-02T15:27:46;28.13;;;19.10;;
35891;SDS011;21993;42.672;23.296;2022-09-02T15:30:11;30.60;;;21.40;;
35891;SDS011;21993;42.672;23.296;2022-09-02T15:32:37;26.00;;;19.57;;
35891;SDS011;21993;42.672;23.296;2022-09-02T15:35:03;27.73;;;19.80;;
35891;SDS011;21993;42.672;23.296;2022-09-02T15:37:29;28.30;;;21.07;;
35891;SDS011;21993;42.672;23.296;2022-09-02T15:39:54;26.57;;;19.27;;
35891;SDS011;21993;42.672;23.296;2022-09-02T15:42:20;31.20;;;21.00;;
35891;SDS011;21993;42.672;23.296;2022-09-02T15:44:45;26.77;;;19.30;;
35891;SDS011;21993;42.672;23.296;2022-09-02T15:47:11;25.77;;;19.13;;
35891;SDS011;21993;42.672;23.296;2022-09-02T15:49:37;27.40;;;21.23;;
35891;SDS011;21993;42.672;23.296;2022-09-02T15:52:02;30.03;;;22.47;;
35891;SDS011;21993;42.672;23.296;2022-09-02T15:54:28;24.20;;;18.57;;
35891;SDS011;21993;42.672;23.296;2022-09-02T15:56:56;25.97;;;19.17;;
35891;SDS011;21993;42.672;23.296;2022-09-02T15:59:22;31.17;;;22.00;;
35891;SDS011;21993;42.672;23.296;2022-09-02T16:01:49;26.87;;;18.33;;
35891;SDS011;21993;42.672;23.296;2022-09-02T16:04:16;26.00;;;18.70;;
35891;SDS011;21993;42.672;23.296;2022-09-02T16:06:43;23.53;;;18.17;;
35891;SDS011;21993;42.672;23.296;2022-09-02T16:09:12;26.83;;;18.37;;
35891;SDS011;21993;42.672;23.296;2022-09-02T16:11:39;25.43;;;17.93;;
35891;SDS011;21993;42.672;23.296;2022-09-02T16:14:06;30.13;;;22.40;;
35891;SDS011;21993;42.672;23.296;2022-09-02T16:16:32;22.50;;;16.37;;
35891;SDS011;21993;42.672;23.296;2022-09-02T16:18:59;21.27;;;13.93;;
35891;SDS011;21993;42.672;23.296;2022-09-02T16:21:26;25.27;;;17.87;;